Point Judith, Rhode Island
Current Conditions -  °F | °C
As of 8:53 AM on Thursday 29 Jan 2015 (Local Time) from KUUU Reporting Station
Clear Clear  
Wind Chill:   Ceiling: Unl
Heat Index: 19°   Visibility: 10mi
Dew Point:   Wind: 8mph
Humidity: 43%   Direction: 10°N
Pressure: 30.31"   Gusts: NA
Location:  41.4075°N, 71.4775°W
Report Text: KUUU 291353Z AUTO 01007KT 10SM CLR M07/M18 A3031 RMK AO2 SLP264 T10721178
Loading
Personal Weather Stations






























Interactive Weather Map New forecast layout! Learn more

10-Day Weather Forecast

Advertisements
Track Severe Weather on mobile